sensor_id;sensor_type;location;lat;lon;timestamp;P1;P2;P0
83036;PMS1003;73029;43.592;1.458;2024-03-23T00:55:54;13.25;12.75;9.75
83036;PMS1003;73029;43.592;1.458;2024-03-23T00:58:19;13.33;13.33;10.67
83036;PMS1003;73029;43.592;1.458;2024-03-23T01:00:45;15.00;14.00;11.00
83036;PMS1003;73029;43.592;1.458;2024-03-23T01:03:10;13.00;13.00;11.33
83036;PMS1003;73029;43.592;1.458;2024-03-23T01:05:35;13.33;13.33;9.67
83036;PMS1003;73029;43.592;1.458;2024-03-23T01:08:01;14.33;14.00;11.00
83036;PMS1003;73029;43.592;1.458;2024-03-23T01:10:27;12.67;12.67;10.00
83036;PMS1003;73029;43.592;1.458;2024-03-23T01:12:52;12.33;12.00;9.33
83036;PMS1003;73029;43.592;1.458;2024-03-23T01:15:18;16.67;15.67;11.67
83036;PMS1003;73029;43.592;1.458;2024-03-23T01:17:43;12.00;12.00;10.00
83036;PMS1003;73029;43.592;1.458;2024-03-23T01:20:08;11.67;10.67;9.00
83036;PMS1003;73029;43.592;1.458;2024-03-23T01:22:34;15.00;14.00;10.67
83036;PMS1003;73029;43.592;1.458;2024-03-23T01:24:59;17.67;16.00;11.33
83036;PMS1003;73029;43.592;1.458;2024-03-23T01:27:25;14.67;12.67;10.00
83036;PMS1003;73029;43.592;1.458;2024-03-23T01:29:50;13.67;11.67;10.00
83036;PMS1003;73029;43.592;1.458;2024-03-23T01:32:17;16.33;15.00;12.33
83036;PMS1003;73029;43.592;1.458;2024-03-23T01:34:43;12.00;12.00;9.67
83036;PMS1003;73029;43.592;1.458;2024-03-23T01:37:08;16.67;15.00;11.00
83036;PMS1003;73029;43.592;1.458;2024-03-23T01:39:34;15.33;15.00;12.33
83036;PMS1003;73029;43.592;1.458;2024-03-23T01:41:59;14.67;13.00;10.67
83036;PMS1003;73029;43.592;1.458;2024-03-23T01:44:25;17.00;15.33;10.33
83036;PMS1003;73029;43.592;1.458;2024-03-23T01:46:50;15.00;13.00;10.33
83036;PMS1003;73029;43.592;1.458;2024-03-23T01:49:16;15.00;14.00;10.00
83036;PMS1003;73029;43.592;1.458;2024-03-23T01:51:42;15.00;14.33;10.67
83036;PMS1003;73029;43.592;1.458;2024-03-23T01:54:08;18.00;17.67;12.33
83036;PMS1003;73029;43.592;1.458;2024-03-23T01:56:34;15.00;12.67;11.00
83036;PMS1003;73029;43.592;1.458;2024-03-23T01:59:03;14.00;13.00;10.67
83036;PMS1003;73029;43.592;1.458;2024-03-23T02:01:30;14.00;14.00;11.00
83036;PMS1003;73029;43.592;1.458;2024-03-23T02:03:56;14.67;14.67;10.67
83036;PMS1003;73029;43.592;1.458;2024-03-23T02:06:22;16.00;14.00;12.00
83036;PMS1003;73029;43.592;1.458;2024-03-23T02:08:49;12.00;12.00;10.00
83036;PMS1003;73029;43.592;1.458;2024-03-23T02:11:14;13.33;13.33;9.67
83036;PMS1003;73029;43.592;1.458;2024-03-23T02:13:39;16.67;13.33;9.67
83036;PMS1003;73029;43.592;1.458;2024-03-23T02:16:05;12.33;12.00;9.33
83036;PMS1003;73029;43.592;1.458;2024-03-23T02:18:32;11.00;11.00;9.00
83036;PMS1003;73029;43.592;1.458;2024-03-23T02:20:57;12.00;10.00;9.00
83036;PMS1003;73029;43.592;1.458;2024-03-23T02:23:23;9.33;8.67;6.67
83036;PMS1003;73029;43.592;1.458;2024-03-23T02:25:49;13.67;13.33;9.00
83036;PMS1003;73029;43.592;1.458;2024-03-23T02:28:15;12.00;11.33;9.00
83036;PMS1003;73029;43.592;1.458;2024-03-23T02:30:42;12.00;12.00;8.00
83036;PMS1003;73029;43.592;1.458;2024-03-23T02:33:07;11.00;9.33;7.00
83036;PMS1003;73029;43.592;1.458;2024-03-23T02:35:33;12.33;12.00;7.33
83036;PMS1003;73029;43.592;1.458;2024-03-23T02:37:58;10.33;10.33;8.00
83036;PMS1003;73029;43.592;1.458;2024-03-23T02:40:24;9.00;9.00;7.67
83036;PMS1003;73029;43.592;1.458;2024-03-23T02:42:50;9.67;9.00;7.00
83036;PMS1003;73029;43.592;1.458;2024-03-23T02:45:15;8.00;8.00;7.00
83036;PMS1003;73029;43.592;1.458;2024-03-23T02:47:41;9.67;9.33;7.67
83036;PMS1003;73029;43.592;1.458;2024-03-23T02:50:06;10.67;8.67;6.67
83036;PMS1003;73029;43.592;1.458;2024-03-23T02:52:32;9.00;9.00;7.00
83036;PMS1003;73029;43.592;1.458;2024-03-23T02:54:58;9.67;9.67;7.67
83036;PMS1003;73029;43.592;1.458;2024-03-23T02:57:23;8.00;8.00;5.00
83036;PMS1003;73029;43.592;1.458;2024-03-23T02:59:49;9.00;9.00;6.00
83036;PMS1003;73029;43.592;1.458;2024-03-23T03:02:14;7.00;7.00;6.00
83036;PMS1003;73029;43.592;1.458;2024-03-23T03:04:40;8.33;8.00;5.00
83036;PMS1003;73029;43.592;1.458;2024-03-23T03:07:06;7.00;7.00;5.00
83036;PMS1003;73029;43.592;1.458;2024-03-23T03:09:31;6.67;6.67;5.00
83036;PMS1003;73029;43.592;1.458;2024-03-23T03:11:57;9.00;8.00;5.33
83036;PMS1003;73029;43.592;1.458;2024-03-23T03:14:23;6.00;4.67;4.00
83036;PMS1003;73029;43.592;1.458;2024-03-23T03:16:48;4.33;4.33;3.33
83036;PMS1003;73029;43.592;1.458;2024-03-23T03:19:14;8.00;7.33;5.00
83036;PMS1003;73029;43.592;1.458;2024-03-23T03:21:41;5.33;5.33;4.67
83036;PMS1003;73029;43.592;1.458;2024-03-23T03:24:07;6.00;5.33;4.33
83036;PMS1003;73029;43.592;1.458;2024-03-23T03:26:32;6.67;5.33;5.00
83036;PMS1003;73029;43.592;1.458;2024-03-23T03:28:57;6.00;6.00;4.00
83036;PMS1003;73029;43.592;1.458;2024-03-23T03:31:23;7.00;6.00;5.00
83036;PMS1003;73029;43.592;1.458;2024-03-23T03:33:49;6.67;6.67;4.67
83036;PMS1003;73029;43.592;1.458;2024-03-23T03:36:16;5.00;5.00;4.00
83036;PMS1003;73029;43.592;1.458;2024-03-23T03:38:41;6.00;6.00;5.00
83036;PMS1003;73029;43.592;1.458;2024-03-23T03:41:06;6.00;5.00;5.00
83036;PMS1003;73029;43.592;1.458;2024-03-23T03:43:32;4.67;4.67;4.00
83036;PMS1003;73029;43.592;1.458;2024-03-23T03:45:59;5.00;5.00;4.00
83036;PMS1003;73029;43.592;1.458;2024-03-23T03:48:25;5.00;5.00;4.00
83036;PMS1003;73029;43.592;1.458;2024-03-23T03:50:51;9.33;5.00;4.67
83036;PMS1003;73029;43.592;1.458;2024-03-23T03:53:18;5.00;5.00;5.00
83036;PMS1003;73029;43.592;1.458;2024-03-23T03:55:43;4.33;4.33;3.67
83036;PMS1003;73029;43.592;1.458;2024-03-23T03:58:09;5.00;5.00;4.00
83036;PMS1003;73029;43.592;1.458;2024-03-23T04:00:34;5.67;5.67;4.00
83036;PMS1003;73029;43.592;1.458;2024-03-23T04:03:00;5.67;5.00;4.00
83036;PMS1003;73029;43.592;1.458;2024-03-23T04:05:26;6.00;5.00;4.00
83036;PMS1003;73029;43.592;1.458;2024-03-23T04:07:51;6.33;5.67;5.00
83036;PMS1003;73029;43.592;1.458;2024-03-23T04:10:16;5.00;5.00;4.00
83036;PMS1003;73029;43.592;1.458;2024-03-23T04:12:43;6.00;6.00;5.00
83036;PMS1003;73029;43.592;1.458;2024-03-23T04:15:08;4.00;4.00;3.67
83036;PMS1003;73029;43.592;1.458;2024-03-23T04:17:35;6.00;6.00;5.00
83036;PMS1003;73029;43.592;1.458;2024-03-23T04:20:01;5.00;5.00;3.67
83036;PMS1003;73029;43.592;1.458;2024-03-23T04:22:29;9.00;7.00;6.33
83036;PMS1003;73029;43.592;1.458;2024-03-23T04:24:55;3.00;3.00;2.00
83036;PMS1003;73029;43.592;1.458;2024-03-23T04:27:21;6.33;4.00;3.33
83036;PMS1003;73029;43.592;1.458;2024-03-23T04:29:50;4.00;4.00;3.00
83036;PMS1003;73029;43.592;1.458;2024-03-23T04:32:16;4.00;4.00;3.00
83036;PMS1003;73029;43.592;1.458;2024-03-23T04:34:42;4.00;4.00;3.67
83036;PMS1003;73029;43.592;1.458;2024-03-23T04:37:09;5.33;4.67;4.00
83036;PMS1003;73029;43.592;1.458;2024-03-23T04:39:35;5.00;5.00;4.00
83036;PMS1003;73029;43.592;1.458;2024-03-23T04:42:01;5.00;4.00;3.00
83036;PMS1003;73029;43.592;1.458;2024-03-23T04:44:27;5.67;5.67;3.67
83036;PMS1003;73029;43.592;1.458;2024-03-23T04:46:53;5.67;5.67;4.00
83036;PMS1003;73029;43.592;1.458;2024-03-23T04:49:18;4.00;4.00;3.00
83036;PMS1003;73029;43.592;1.458;2024-03-23T04:51:44;4.00;4.00;4.00
83036;PMS1003;73029;43.592;1.458;2024-03-23T04:54:14;5.67;5.67;3.33
83036;PMS1003;73029;43.592;1.458;2024-03-23T04:56:40;4.00;4.00;3.00
83036;PMS1003;73029;43.592;1.458;2024-03-23T04:59:05;3.33;3.33;2.67
83036;PMS1003;73029;43.592;1.458;2024-03-23T05:01:33;5.00;5.00;4.00
83036;PMS1003;73029;43.592;1.458;2024-03-23T05:03:59;3.00;3.00;2.00
83036;PMS1003;73029;43.592;1.458;2024-03-23T05:06:25;4.00;4.00;2.67
83036;PMS1003;73029;43.592;1.458;2024-03-23T05:08:50;4.00;3.67;3.00
83036;PMS1003;73029;43.592;1.458;2024-03-23T05:11:16;5.00;3.00;3.00
83036;PMS1003;73029;43.592;1.458;2024-03-23T05:13:43;4.33;3.00;3.00
83036;PMS1003;73029;43.592;1.458;2024-03-23T05:16:09;3.00;3.00;2.00
83036;PMS1003;73029;43.592;1.458;2024-03-23T05:18:34;3.00;3.00;3.00
83036;PMS1003;73029;43.592;1.458;2024-03-23T05:21:00;2.67;2.00;2.00
83036;PMS1003;73029;43.592;1.458;2024-03-23T05:23:26;4.00;3.00;3.00
83036;PMS1003;73029;43.592;1.458;2024-03-23T05:25:52;2.67;2.67;2.00
83036;PMS1003;73029;43.592;1.458;2024-03-23T05:28:18;2.00;2.00;2.00
83036;PMS1003;73029;43.592;1.458;2024-03-23T05:30:43;5.67;3.00;2.00
83036;PMS1003;73029;43.592;1.458;2024-03-23T05:33:09;3.00;3.00;3.00
83036;PMS1003;73029;43.592;1.458;2024-03-23T05:35:34;3.33;3.33;2.00
83036;PMS1003;73029;43.592;1.458;2024-03-23T05:38:00;2.33;2.33;2.33
83036;PMS1003;73029;43.592;1.458;2024-03-23T05:40:26;3.33;3.00;3.00
83036;PMS1003;73029;43.592;1.458;2024-03-23T05:42:51;2.00;2.00;2.00
83036;PMS1003;73029;43.592;1.458;2024-03-23T05:45:20;3.33;3.33;2.00
83036;PMS1003;73029;43.592;1.458;2024-03-23T05:47:47;2.00;2.00;2.00
83036;PMS1003;73029;43.592;1.458;2024-03-23T05:50:13;4.00;4.00;2.00
83036;PMS1003;73029;43.592;1.458;2024-03-23T05:52:39;2.00;2.00;2.00
83036;PMS1003;73029;43.592;1.458;2024-03-23T05:55:04;2.00;2.00;1.67
83036;PMS1003;73029;43.592;1.458;2024-03-23T05:57:31;3.33;2.00;1.00
83036;PMS1003;73029;43.592;1.458;2024-03-23T05:59:56;4.00;4.00;2.00
83036;PMS1003;73029;43.592;1.458;2024-03-23T06:02:22;2.00;2.00;2.00
83036;PMS1003;73029;43.592;1.458;2024-03-23T06:04:48;2.00;2.00;1.00
83036;PMS1003;73029;43.592;1.458;2024-03-23T06:07:13;4.33;2.00;2.00
83036;PMS1003;73029;43.592;1.458;2024-03-23T06:09:40;4.33;4.00;3.00
83036;PMS1003;73029;43.592;1.458;2024-03-23T06:12:06;3.67;2.00;2.00
83036;PMS1003;73029;43.592;1.458;2024-03-23T06:14:31;1.00;1.00;1.00
83036;PMS1003;73029;43.592;1.458;2024-03-23T06:16:58;3.00;3.00;2.33
83036;PMS1003;73029;43.592;1.458;2024-03-23T06:19:23;3.00;3.00;2.00
83036;PMS1003;73029;43.592;1.458;2024-03-23T06:21:52;3.33;2.67;2.00
83036;PMS1003;73029;43.592;1.458;2024-03-23T06:24:17;2.00;2.00;2.00
83036;PMS1003;73029;43.592;1.458;2024-03-23T06:26:43;4.00;3.00;2.00
83036;PMS1003;73029;43.592;1.458;2024-03-23T06:29:08;3.33;3.33;3.00
83036;PMS1003;73029;43.592;1.458;2024-03-23T06:31:34;5.00;4.33;4.00
83036;PMS1003;73029;43.592;1.458;2024-03-23T06:33:59;5.00;4.67;3.00
83036;PMS1003;73029;43.592;1.458;2024-03-23T06:36:26;2.33;2.33;2.00
83036;PMS1003;73029;43.592;1.458;2024-03-23T06:38:52;4.00;2.00;1.67
83036;PMS1003;73029;43.592;1.458;2024-03-23T06:41:18;2.67;1.67;1.33
83036;PMS1003;73029;43.592;1.458;2024-03-23T06:43:44;2.00;2.00;1.67
83036;PMS1003;73029;43.592;1.458;2024-03-23T06:46:09;3.00;2.00;1.67
83036;PMS1003;73029;43.592;1.458;2024-03-23T06:48:35;3.00;3.00;2.00
83036;PMS1003;73029;43.592;1.458;2024-03-23T06:51:00;5.00;2.33;2.00
83036;PMS1003;73029;43.592;1.458;2024-03-23T06:53:26;3.00;3.00;2.00
83036;PMS1003;73029;43.592;1.458;2024-03-23T06:55:52;5.00;3.67;3.00
83036;PMS1003;73029;43.592;1.458;2024-03-23T06:58:22;2.00;2.00;2.00
83036;PMS1003;73029;43.592;1.458;2024-03-23T07:00:49;5.67;4.00;2.00
83036;PMS1003;73029;43.592;1.458;2024-03-23T07:03:15;4.33;4.00;2.33
83036;PMS1003;73029;43.592;1.458;2024-03-23T07:05:41;3.67;3.00;2.00
83036;PMS1003;73029;43.592;1.458;2024-03-23T07:08:07;4.00;4.00;2.33
83036;PMS1003;73029;43.592;1.458;2024-03-23T07:10:33;3.33;2.00;1.67
83036;PMS1003;73029;43.592;1.458;2024-03-23T07:12:58;2.33;2.33;2.00
83036;PMS1003;73029;43.592;1.458;2024-03-23T07:15:24;3.00;2.00;2.00
83036;PMS1003;73029;43.592;1.458;2024-03-23T07:17:49;2.00;2.00;2.00
83036;PMS1003;73029;43.592;1.458;2024-03-23T07:20:15;2.00;2.00;2.00
83036;PMS1003;73029;43.592;1.458;2024-03-23T07:22:41;4.00;4.00;2.67
83036;PMS1003;73029;43.592;1.458;2024-03-23T07:25:06;2.00;2.00;2.00
83036;PMS1003;73029;43.592;1.458;2024-03-23T07:27:32;2.33;2.33;2.00
83036;PMS1003;73029;43.592;1.458;2024-03-23T07:29:58;1.00;1.00;1.00
83036;PMS1003;73029;43.592;1.458;2024-03-23T07:32:24;0.67;0.67;0.00
83036;PMS1003;73029;43.592;1.458;2024-03-23T07:34:51;0.00;0.00;0.00
83036;PMS1003;73029;43.592;1.458;2024-03-23T07:37:17;0.00;0.00;0.00
83036;PMS1003;73029;43.592;1.458;2024-03-23T07:39:42;0.00;0.00;0.00
83036;PMS1003;73029;43.592;1.458;2024-03-23T07:42:08;0.00;0.00;0.00
83036;PMS1003;73029;43.592;1.458;2024-03-23T07:44:33;0.00;0.00;0.00
83036;PMS1003;73029;43.592;1.458;2024-03-23T07:47:00;0.00;0.00;0.00
83036;PMS1003;73029;43.592;1.458;2024-03-23T07:49:26;0.00;0.00;0.00
83036;PMS1003;73029;43.592;1.458;2024-03-23T07:51:51;0.00;0.00;0.00
83036;PMS1003;73029;43.592;1.458;2024-03-23T07:54:17;0.00;0.00;0.00
83036;PMS1003;73029;43.592;1.458;2024-03-23T07:56:42;0.00;0.00;0.00
83036;PMS1003;73029;43.592;1.458;2024-03-23T07:59:07;0.00;0.00;0.00
83036;PMS1003;73029;43.592;1.458;2024-03-23T08:01:33;1.00;1.00;1.00
83036;PMS1003;73029;43.592;1.458;2024-03-23T08:03:58;2.33;2.33;1.00
83036;PMS1003;73029;43.592;1.458;2024-03-23T08:06:24;1.00;1.00;1.00
83036;PMS1003;73029;43.592;1.458;2024-03-23T08:08:52;1.00;1.00;1.00
83036;PMS1003;73029;43.592;1.458;2024-03-23T08:11:30;1.67;1.67;1.00
83036;PMS1003;73029;43.592;1.458;2024-03-23T08:13:57;2.00;2.00;1.67
83036;PMS1003;73029;43.592;1.458;2024-03-23T08:16:23;1.00;1.00;0.67
83036;PMS1003;73029;43.592;1.458;2024-03-23T08:18:52;1.00;1.00;0.33
83036;PMS1003;73029;43.592;1.458;2024-03-23T08:21:17;1.00;1.00;0.00
83036;PMS1003;73029;43.592;1.458;2024-03-23T08:23:43;0.00;0.00;0.00
83036;PMS1003;73029;43.592;1.458;2024-03-23T08:26:10;0.00;0.00;0.00
83036;PMS1003;73029;43.592;1.458;2024-03-23T08:28:36;1.67;1.00;0.00
83036;PMS1003;73029;43.592;1.458;2024-03-23T08:31:09;0.00;0.00;0.00
83036;PMS1003;73029;43.592;1.458;2024-03-23T08:33:36;0.67;0.67;0.00
83036;PMS1003;73029;43.592;1.458;2024-03-23T08:36:06;0.00;0.00;0.00
83036;PMS1003;73029;43.592;1.458;2024-03-23T08:38:33;2.00;1.00;1.00
83036;PMS1003;73029;43.592;1.458;2024-03-23T08:41:00;2.00;1.00;0.00
83036;PMS1003;73029;43.592;1.458;2024-03-23T08:43:34;0.33;0.33;0.00
83036;PMS1003;73029;43.592;1.458;2024-03-23T08:46:04;0.00;0.00;0.00
83036;PMS1003;73029;43.592;1.458;2024-03-23T08:48:34;0.00;0.00;0.00
83036;PMS1003;73029;43.592;1.458;2024-03-23T08:51:02;0.00;0.00;0.00
83036;PMS1003;73029;43.592;1.458;2024-03-23T08:53:29;1.67;0.00;0.00
83036;PMS1003;73029;43.592;1.458;2024-03-23T08:55:55;0.33;0.00;0.00
83036;PMS1003;73029;43.592;1.458;2024-03-23T08:58:23;0.00;0.00;0.00
83036;PMS1003;73029;43.592;1.458;2024-03-23T09:00:49;0.00;0.00;0.00
83036;PMS1003;73029;43.592;1.458;2024-03-23T09:03:15;4.00;2.00;0.33
83036;PMS1003;73029;43.592;1.458;2024-03-23T09:05:40;3.00;1.00;0.00
83036;PMS1003;73029;43.592;1.458;2024-03-23T09:08:06;1.33;0.00;0.00
83036;PMS1003;73029;43.592;1.458;2024-03-23T09:10:34;0.00;0.00;0.00
83036;PMS1003;73029;43.592;1.458;2024-03-23T09:13:02;0.00;0.00;0.00
83036;PMS1003;73029;43.592;1.458;2024-03-23T09:15:27;2.00;2.00;0.33
83036;PMS1003;73029;43.592;1.458;2024-03-23T09:17:53;1.67;0.00;0.00
83036;PMS1003;73029;43.592;1.458;2024-03-23T09:20:19;4.33;1.00;0.33
83036;PMS1003;73029;43.592;1.458;2024-03-23T09:22:44;1.00;1.00;0.00
83036;PMS1003;73029;43.592;1.458;2024-03-23T09:25:10;1.00;1.00;0.00
83036;PMS1003;73029;43.592;1.458;2024-03-23T09:27:35;0.00;0.00;0.00
83036;PMS1003;73029;43.592;1.458;2024-03-23T09:30:00;1.00;1.00;0.00
83036;PMS1003;73029;43.592;1.458;2024-03-23T09:32:26;0.67;0.33;0.00
83036;PMS1003;73029;43.592;1.458;2024-03-23T09:34:51;1.00;0.00;0.00
83036;PMS1003;73029;43.592;1.458;2024-03-23T09:37:16;1.33;0.67;0.00
83036;PMS1003;73029;43.592;1.458;2024-03-23T09:39:42;0.33;0.33;0.00
83036;PMS1003;73029;43.592;1.458;2024-03-23T09:42:07;1.33;1.33;0.33
83036;PMS1003;73029;43.592;1.458;2024-03-23T09:44:32;0.00;0.00;0.00
83036;PMS1003;73029;43.592;1.458;2024-03-23T09:46:58;0.00;0.00;0.00
83036;PMS1003;73029;43.592;1.458;2024-03-23T09:49:23;1.00;1.00;0.33
83036;PMS1003;73029;43.592;1.458;2024-03-23T09:51:50;1.00;1.00;0.00
83036;PMS1003;73029;43.592;1.458;2024-03-23T09:54:16;0.00;0.00;0.00
83036;PMS1003;73029;43.592;1.458;2024-03-23T09:56:41;1.00;1.00;0.00
83036;PMS1003;73029;43.592;1.458;2024-03-23T09:59:07;1.00;1.00;0.00
83036;PMS1003;73029;43.592;1.458;2024-03-23T10:01:32;0.00;0.00;0.00
83036;PMS1003;73029;43.592;1.458;2024-03-23T10:03:58;3.00;0.67;0.67
83036;PMS1003;73029;43.592;1.458;2024-03-23T10:06:24;4.00;2.00;0.67
83036;PMS1003;73029;43.592;1.458;2024-03-23T10:08:52;3.00;0.00;0.00
83036;PMS1003;73029;43.592;1.458;2024-03-23T10:11:19;1.33;1.00;1.00
83036;PMS1003;73029;43.592;1.458;2024-03-23T10:13:46;2.00;0.33;0.00
83036;PMS1003;73029;43.592;1.458;2024-03-23T10:16:12;2.00;1.00;0.33
83036;PMS1003;73029;43.592;1.458;2024-03-23T10:18:46;1.67;0.00;0.00
83036;PMS1003;73029;43.592;1.458;2024-03-23T10:21:12;2.00;1.67;0.67
83036;PMS1003;73029;43.592;1.458;2024-03-23T10:23:39;1.00;1.00;1.00
83036;PMS1003;73029;43.592;1.458;2024-03-23T10:26:19;2.00;1.33;0.33
83036;PMS1003;73029;43.592;1.458;2024-03-23T10:28:53;1.00;1.00;0.67
83036;PMS1003;73029;43.592;1.458;2024-03-23T10:31:24;1.00;1.00;1.00
83036;PMS1003;73029;43.592;1.458;2024-03-23T10:33:50;1.00;1.00;0.33
83036;PMS1003;73029;43.592;1.458;2024-03-23T10:36:18;1.00;1.00;0.00
83036;PMS1003;73029;43.592;1.458;2024-03-23T10:38:45;0.00;0.00;0.00
83036;PMS1003;73029;43.592;1.458;2024-03-23T10:41:12;1.00;1.00;0.67
83036;PMS1003;73029;43.592;1.458;2024-03-23T10:43:37;1.00;1.00;0.00
83036;PMS1003;73029;43.592;1.458;2024-03-23T10:46:04;1.00;1.00;0.00
83036;PMS1003;73029;43.592;1.458;2024-03-23T10:48:30;2.00;1.00;0.00
83036;PMS1003;73029;43.592;1.458;2024-03-23T10:50:56;2.33;1.00;1.00
83036;PMS1003;73029;43.592;1.458;2024-03-23T10:53:22;1.33;1.00;0.67
83036;PMS1003;73029;43.592;1.458;2024-03-23T10:55:51;1.00;1.00;0.00
83036;PMS1003;73029;43.592;1.458;2024-03-23T10:58:59;0.67;0.67;0.00
83036;PMS1003;73029;43.592;1.458;2024-03-23T11:01:11;2.67;1.67;0.00
83036;PMS1003;73029;43.592;1.458;2024-03-23T11:03:38;2.00;0.67;0.33
83036;PMS1003;73029;43.592;1.458;2024-03-23T11:06:05;2.00;2.00;1.00
83036;PMS1003;73029;43.592;1.458;2024-03-23T11:08:33;2.00;1.00;0.00
83036;PMS1003;73029;43.592;1.458;2024-03-23T11:11:13;2.00;1.00;0.00
83036;PMS1003;73029;43.592;1.458;2024-03-23T11:13:49;0.00;0.00;0.00
83036;PMS1003;73029;43.592;1.458;2024-03-23T11:16:23;1.00;1.00;1.00
83036;PMS1003;73029;43.592;1.458;2024-03-23T11:18:52;3.00;1.00;0.00
83036;PMS1003;73029;43.592;1.458;2024-03-23T11:24:21;0.00;0.00;0.00
83036;PMS1003;73029;43.592;1.458;2024-03-23T11:26:47;4.00;1.00;0.00
83036;PMS1003;73029;43.592;1.458;2024-03-23T11:29:15;0.33;0.33;0.00
83036;PMS1003;73029;43.592;1.458;2024-03-23T11:31:49;2.00;1.00;1.00
83036;PMS1003;73029;43.592;1.458;2024-03-23T11:34:19;2.33;1.00;0.00
83036;PMS1003;73029;43.592;1.458;2024-03-23T11:36:45;0.00;0.00;0.00
83036;PMS1003;73029;43.592;1.458;2024-03-23T11:39:14;1.00;1.00;0.00
83036;PMS1003;73029;43.592;1.458;2024-03-23T11:41:48;0.67;0.00;0.00
83036;PMS1003;73029;43.592;1.458;2024-03-23T11:44:18;0.67;0.67;0.00
83036;PMS1003;73029;43.592;1.458;2024-03-23T11:46:45;0.00;0.00;0.00
83036;PMS1003;73029;43.592;1.458;2024-03-23T11:51:47;0.00;0.00;0.00
83036;PMS1003;73029;43.592;1.458;2024-03-23T11:54:13;0.00;0.00;0.00
83036;PMS1003;73029;43.592;1.458;2024-03-23T11:56:38;0.33;0.33;0.00
83036;PMS1003;73029;43.592;1.458;2024-03-23T11:59:03;1.33;0.67;0.00
83036;PMS1003;73029;43.592;1.458;2024-03-23T12:01:29;1.00;1.00;0.00
83036;PMS1003;73029;43.592;1.458;2024-03-23T12:03:54;0.33;0.33;0.00
83036;PMS1003;73029;43.592;1.458;2024-03-23T12:06:20;0.00;0.00;0.00
83036;PMS1003;73029;43.592;1.458;2024-03-23T12:08:45;0.67;0.67;0.00
83036;PMS1003;73029;43.592;1.458;2024-03-23T12:11:12;1.00;0.00;0.00
83036;PMS1003;73029;43.592;1.458;2024-03-23T12:13:40;0.00;0.00;0.00
83036;PMS1003;73029;43.592;1.458;2024-03-23T12:16:10;0.00;0.00;0.00
83036;PMS1003;73029;43.592;1.458;2024-03-23T12:18:40;0.00;0.00;0.00
83036;PMS1003;73029;43.592;1.458;2024-03-23T12:21:07;0.33;0.33;0.00
83036;PMS1003;73029;43.592;1.458;2024-03-23T12:23:33;0.00;0.00;0.00
83036;PMS1003;73029;43.592;1.458;2024-03-23T12:25:59;0.00;0.00;0.00
83036;PMS1003;73029;43.592;1.458;2024-03-23T12:28:24;0.00;0.00;0.00
83036;PMS1003;73029;43.592;1.458;2024-03-23T12:30:51;0.00;0.00;0.00
83036;PMS1003;73029;43.592;1.458;2024-03-23T12:33:18;0.67;0.00;0.00
83036;PMS1003;73029;43.592;1.458;2024-03-23T12:35:43;1.00;0.00;0.00
83036;PMS1003;73029;43.592;1.458;2024-03-23T12:38:09;1.00;0.00;0.00
83036;PMS1003;73029;43.592;1.458;2024-03-23T12:40:34;0.67;0.67;0.00
83036;PMS1003;73029;43.592;1.458;2024-03-23T12:43:00;0.00;0.00;0.00
83036;PMS1003;73029;43.592;1.458;2024-03-23T12:45:25;0.00;0.00;0.00
83036;PMS1003;73029;43.592;1.458;2024-03-23T12:47:50;0.00;0.00;0.00
83036;PMS1003;73029;43.592;1.458;2024-03-23T12:50:18;0.00;0.00;0.00
83036;PMS1003;73029;43.592;1.458;2024-03-23T12:52:44;0.33;0.00;0.00
83036;PMS1003;73029;43.592;1.458;2024-03-23T12:55:10;3.67;0.00;0.00
83036;PMS1003;73029;43.592;1.458;2024-03-23T12:57:35;0.00;0.00;0.00
83036;PMS1003;73029;43.592;1.458;2024-03-23T13:00:01;1.00;0.00;0.00
83036;PMS1003;73029;43.592;1.458;2024-03-23T13:02:28;0.00;0.00;0.00
83036;PMS1003;73029;43.592;1.458;2024-03-23T13:04:53;1.00;0.67;0.00
83036;PMS1003;73029;43.592;1.458;2024-03-23T13:07:20;0.00;0.00;0.00
83036;PMS1003;73029;43.592;1.458;2024-03-23T13:09:46;0.00;0.00;0.00
83036;PMS1003;73029;43.592;1.458;2024-03-23T13:12:12;1.00;1.00;0.00
83036;PMS1003;73029;43.592;1.458;2024-03-23T13:14:40;1.00;1.00;0.00
83036;PMS1003;73029;43.592;1.458;2024-03-23T13:17:07;1.00;0.00;0.00
83036;PMS1003;73029;43.592;1.458;2024-03-23T13:19:33;0.00;0.00;0.00
83036;PMS1003;73029;43.592;1.458;2024-03-23T13:21:59;0.00;0.00;0.00
83036;PMS1003;73029;43.592;1.458;2024-03-23T13:24:25;0.00;0.00;0.00
83036;PMS1003;73029;43.592;1.458;2024-03-23T13:26:52;0.67;0.67;0.00
83036;PMS1003;73029;43.592;1.458;2024-03-23T13:29:19;0.00;0.00;0.00
83036;PMS1003;73029;43.592;1.458;2024-03-23T13:31:45;0.33;0.33;0.00
83036;PMS1003;73029;43.592;1.458;2024-03-23T13:34:11;0.67;0.67;0.00
83036;PMS1003;73029;43.592;1.458;2024-03-23T13:36:39;0.00;0.00;0.00
83036;PMS1003;73029;43.592;1.458;2024-03-23T13:39:06;0.00;0.00;0.00
83036;PMS1003;73029;43.592;1.458;2024-03-23T13:41:36;0.00;0.00;0.00
83036;PMS1003;73029;43.592;1.458;2024-03-23T13:44:12;0.33;0.33;0.00
83036;PMS1003;73029;43.592;1.458;2024-03-23T13:46:39;1.00;0.00;0.00
83036;PMS1003;73029;43.592;1.458;2024-03-23T13:49:05;0.67;0.67;0.00
83036;PMS1003;73029;43.592;1.458;2024-03-23T13:51:31;0.00;0.00;0.00
83036;PMS1003;73029;43.592;1.458;2024-03-23T13:53:57;1.00;1.00;0.00
83036;PMS1003;73029;43.592;1.458;2024-03-23T13:56:25;0.00;0.00;0.00
83036;PMS1003;73029;43.592;1.458;2024-03-23T13:58:52;0.00;0.00;0.00
83036;PMS1003;73029;43.592;1.458;2024-03-23T14:01:18;2.67;0.00;0.00
83036;PMS1003;73029;43.592;1.458;2024-03-23T14:03:43;0.00;0.00;0.00
83036;PMS1003;73029;43.592;1.458;2024-03-23T14:06:09;0.33;0.00;0.00
83036;PMS1003;73029;43.592;1.458;2024-03-23T14:08:36;0.00;0.00;0.00
83036;PMS1003;73029;43.592;1.458;2024-03-23T14:11:04;0.00;0.00;0.00
83036;PMS1003;73029;43.592;1.458;2024-03-23T14:13:36;0.33;0.33;0.00
83036;PMS1003;73029;43.592;1.458;2024-03-23T14:16:02;0.00;0.00;0.00
83036;PMS1003;73029;43.592;1.458;2024-03-23T14:18:29;0.67;0.67;0.67
83036;PMS1003;73029;43.592;1.458;2024-03-23T14:20:58;1.33;0.00;0.00
83036;PMS1003;73029;43.592;1.458;2024-03-23T14:23:28;0.00;0.00;0.00
83036;PMS1003;73029;43.592;1.458;2024-03-23T14:26:00;0.00;0.00;0.00
83036;PMS1003;73029;43.592;1.458;2024-03-23T14:28:25;0.33;0.33;0.00
83036;PMS1003;73029;43.592;1.458;2024-03-23T14:30:51;1.33;1.33;0.00
83036;PMS1003;73029;43.592;1.458;2024-03-23T14:33:17;0.00;0.00;0.00
83036;PMS1003;73029;43.592;1.458;2024-03-23T14:35:43;0.00;0.00;0.00
83036;PMS1003;73029;43.592;1.458;2024-03-23T14:38:18;0.00;0.00;0.00
83036;PMS1003;73029;43.592;1.458;2024-03-23T14:40:43;0.00;0.00;0.00
83036;PMS1003;73029;43.592;1.458;2024-03-23T14:43:09;0.00;0.00;0.00
83036;PMS1003;73029;43.592;1.458;2024-03-23T14:45:34;0.00;0.00;0.00
83036;PMS1003;73029;43.592;1.458;2024-03-23T14:47:59;0.67;0.67;0.00
83036;PMS1003;73029;43.592;1.458;2024-03-23T14:50:25;0.00;0.00;0.00
83036;PMS1003;73029;43.592;1.458;2024-03-23T14:52:51;1.67;0.00;0.00
83036;PMS1003;73029;43.592;1.458;2024-03-23T14:55:17;1.33;0.67;0.00
83036;PMS1003;73029;43.592;1.458;2024-03-23T14:57:43;0.00;0.00;0.00
83036;PMS1003;73029;43.592;1.458;2024-03-23T15:00:08;2.00;0.33;0.00
83036;PMS1003;73029;43.592;1.458;2024-03-23T15:02:36;0.33;0.33;0.00
83036;PMS1003;73029;43.592;1.458;2024-03-23T15:05:02;1.67;0.00;0.00
83036;PMS1003;73029;43.592;1.458;2024-03-23T15:07:29;1.33;0.00;0.00
83036;PMS1003;73029;43.592;1.458;2024-03-23T15:09:55;0.00;0.00;0.00
83036;PMS1003;73029;43.592;1.458;2024-03-23T15:12:21;1.67;1.00;0.00
83036;PMS1003;73029;43.592;1.458;2024-03-23T15:14:46;0.33;0.33;0.00